Time;durP1;ratioP1;P1;durP2;ratioP2;P2;SDS_P1;SDS_P2;PMS_P1;PMS_P2;Temp;Humidity;BMP_temperature;BMP_pressure;BME280_temperature;BME280_humidity;BME280_pressure;Samples;Min_cycle;Max_cycle;Signal;HPM_P1;HPM_P2
2023/08/27 00:00:28;;;;;;;5.88;5.28;;;;;;;22.51;53.54;94670.91;5114681;27;20031;-72
2023/08/27 00:02:53;;;;;;;5.80;4.93;;;;;;;22.63;52.31;94665.81;5114902;27;20035;-72
2023/08/27 00:05:19;;;;;;;6.95;5.47;;;;;;;22.51;53.17;94657.66;5133124;27;20035;-72
2023/08/27 00:07:44;;;;;;;8.02;5.65;;;;;;;22.43;53.45;94658.72;5114661;27;20043;-71
2023/08/27 00:10:10;;;;;;;8.18;5.63;;;;;;;22.35;53.41;94666.03;5114767;27;20023;-70
2023/08/27 00:12:35;;;;;;;7.78;5.45;;;;;;;22.45;53.41;94655.84;5114681;27;20072;-71
2023/08/27 00:15:01;;;;;;;7.72;5.70;;;;;;;22.36;53.09;94662.38;5132928;27;20150;-71
2023/08/27 00:17:27;;;;;;;6.18;5.18;;;;;;;22.45;52.54;94661.13;5114487;27;20031;-71
2023/08/27 00:19:52;;;;;;;6.07;4.75;;;;;;;22.27;52.06;94622.06;5132841;27;20504;-71
2023/08/27 00:22:18;;;;;;;5.82;4.85;;;;;;;22.44;52.30;94647.09;5130744;27;20162;-70
2023/08/27 00:24:43;;;;;;;7.35;5.32;;;;;;;22.24;52.79;94625.94;5131508;27;20031;-72
2023/08/27 00:27:08;;;;;;;8.63;5.32;;;;;;;22.30;52.71;94642.81;5131129;27;20047;-71
2023/08/27 00:29:34;;;;;;;6.38;5.38;;;;;;;22.27;52.74;94635.31;5131382;27;20019;-71
2023/08/27 00:32:00;;;;;;;7.13;4.97;;;;;;;22.13;53.33;94637.09;5131196;27;20034;-71
2023/08/27 00:34:32;;;;;;;7.13;5.20;;;;;;;22.19;53.41;94641.59;5132571;27;20027;-71
2023/08/27 00:36:59;;;;;;;6.70;5.45;;;;;;;22.14;53.27;94644.00;5130532;27;20076;-71
2023/08/27 00:39:25;;;;;;;6.15;5.18;;;;;;;22.18;53.56;94639.97;5130884;27;20471;-72
2023/08/27 00:41:50;;;;;;;6.28;5.10;;;;;;;21.99;54.30;94643.38;5130955;27;20037;-71
2023/08/27 00:44:16;;;;;;;6.35;5.40;;;;;;;21.92;54.28;94643.34;5131176;27;20027;-71
2023/08/27 00:46:41;;;;;;;7.32;5.20;;;;;;;21.81;54.83;94641.31;5096901;27;20917;-71
2023/08/27 00:49:06;;;;;;;6.10;5.18;;;;;;;21.67;55.03;94627.25;5130751;27;20019;-71
2023/08/27 00:51:32;;;;;;;5.88;5.20;;;;;;;21.60;54.46;94600.00;5113811;27;20027;-71
2023/08/27 00:53:58;;;;;;;7.22;5.28;;;;;;;21.69;54.56;94625.22;5130984;27;20050;-71
2023/08/27 00:56:24;;;;;;;5.93;4.88;;;;;;;21.61;54.80;94620.13;5113868;27;20118;-70
2023/08/27 00:58:49;;;;;;;7.60;5.22;;;;;;;21.66;54.63;94630.09;5130819;27;20114;-71
2023/08/27 01:01:15;;;;;;;5.97;4.97;;;;;;;21.56;54.87;94625.19;5130837;27;20178;-71
2023/08/27 01:03:41;;;;;;;6.72;4.90;;;;;;;21.65;54.33;94621.38;5113726;27;20114;-71
2023/08/27 01:06:07;;;;;;;6.63;5.30;;;;;;;21.43;54.68;94596.91;5131140;27;20027;-71
2023/08/27 01:08:38;;;;;;;7.70;5.22;;;;;;;21.68;54.63;94620.97;5132330;27;20126;-72
2023/08/27 01:11:10;;;;;;;8.30;5.15;;;;;;;21.54;54.79;94617.47;5132013;27;20055;-71
2023/08/27 01:13:44;;;;;;;7.35;5.40;;;;;;;21.60;54.55;94627.25;5113888;27;20436;-71
2023/08/27 01:16:09;;;;;;;6.60;4.68;;;;;;;21.61;54.66;94620.13;5130686;27;20479;-69
2023/08/27 01:18:35;;;;;;;7.68;5.00;;;;;;;21.68;54.55;94618.31;5113476;28;20038;-70
2023/08/27 01:21:21;;;;;;;6.38;4.85;;;;;;;21.61;54.65;94626.22;5096473;28;20405;-69
2023/08/27 01:23:46;;;;;;;6.47;4.68;;;;;;;21.48;55.25;94626.19;5130606;28;20042;-69
2023/08/27 01:26:24;;;;;;;7.50;4.82;;;;;;;21.42;55.17;94622.53;5131751;27;20408;-69
2023/08/27 01:28:55;;;;;;;6.47;5.20;;;;;;;21.16;55.86;94612.63;5131537;27;20081;-69
2023/08/27 01:31:21;;;;;;;5.80;5.30;;;;;;;20.93;56.10;94568.06;5113823;28;20062;-69
2023/08/27 01:33:49;;;;;;;7.03;4.95;;;;;;;21.25;55.46;94613.28;5131655;27;20110;-69
2023/08/27 01:36:15;;;;;;;6.35;4.50;;;;;;;21.34;54.75;94609.47;5134797;27;20071;-70
2023/08/27 01:38:41;;;;;;;6.95;4.80;;;;;;;21.36;54.48;94604.78;5117677;27;20461;-69
2023/08/27 01:41:06;;;;;;;7.63;4.50;;;;;;;21.52;53.81;94613.41;5134934;27;20020;-69
2023/08/27 01:43:33;;;;;;;7.28;4.53;;;;;;;21.63;53.54;94623.38;5134574;27;20133;-70
2023/08/27 01:45:58;;;;;;;5.72;4.47;;;;;;;21.56;54.58;94606.69;5135779;27;20019;-69
2023/08/27 01:48:24;;;;;;;4.88;4.38;;;;;;;21.60;54.75;94619.31;5134621;27;20042;-69
2023/08/27 01:50:49;;;;;;;7.35;4.85;;;;;;;21.61;54.88;94630.69;5117431;27;20045;-69
2023/08/27 01:53:14;;;;;;;6.63;5.07;;;;;;;21.63;55.35;94634.78;5136058;27;20031;-69
2023/08/27 01:55:40;;;;;;;6.05;4.82;;;;;;;21.55;55.28;94628.84;5134465;27;20520;-69
2023/08/27 01:58:05;;;;;;;6.05;4.82;;;;;;;21.31;55.72;94625.72;5134492;27;20455;-69
2023/08/27 02:00:31;;;;;;;6.18;4.70;;;;;;;21.52;55.36;94639.81;5117219;27;20030;-69
2023/08/27 02:02:56;;;;;;;7.10;4.88;;;;;;;21.30;55.51;94639.09;5134349;27;20031;-69
2023/08/27 02:05:22;;;;;;;5.93;4.25;;;;;;;20.88;56.00;94586.31;5135499;27;20023;-69
2023/08/27 02:07:47;;;;;;;6.03;4.85;;;;;;;21.17;55.85;94629.28;5135629;27;20027;-69
2023/08/27 02:10:12;;;;;;;5.75;4.63;;;;;;;21.08;56.16;94622.56;5134168;27;20480;-69
2023/08/27 02:12:38;;;;;;;5.43;4.63;;;;;;;21.18;55.58;94620.38;5134123;27;20039;-69
2023/08/27 02:15:06;;;;;;;5.20;4.40;;;;;;;21.13;55.90;94633.34;5135329;27;20031;-69
2023/08/27 02:17:32;;;;;;;5.03;4.35;;;;;;;21.00;55.92;94623.53;5135078;27;20035;-69
2023/08/27 02:19:57;;;;;;;5.78;5.03;;;;;;;21.02;56.13;94615.41;5133884;27;20065;-70
2023/08/27 02:22:23;;;;;;;7.15;4.82;;;;;;;21.05;56.10;94621.13;5135238;27;20039;-69
2023/08/27 02:24:48;;;;;;;6.97;4.68;;;;;;;21.05;56.04;94615.03;5135156;27;20030;-69
2023/08/27 02:27:13;;;;;;;7.50;4.80;;;;;;;21.13;55.66;94618.31;5134920;27;20051;-69
2023/08/27 02:29:39;;;;;;;6.22;5.03;;;;;;;21.09;55.94;94616.25;5133786;27;20500;-69
2023/08/27 02:32:05;;;;;;;7.88;4.90;;;;;;;20.92;55.96;94606.03;5133573;27;20038;-69
2023/08/27 02:34:30;;;;;;;8.13;4.90;;;;;;;20.89;56.24;94611.69;5134723;27;20050;-69
2023/08/27 02:36:56;;;;;;;5.40;4.90;;;;;;;20.79;56.52;94608.59;5116453;27;20468;-69
2023/08/27 02:39:22;;;;;;;6.45;4.72;;;;;;;20.89;56.40;94611.69;5134806;27;20027;-70
2023/08/27 02:41:47;;;;;;;5.53;4.50;;;;;;;20.92;56.27;94613.97;5134794;27;20034;-69
2023/08/27 02:44:13;;;;;;;6.70;4.80;;;;;;;20.82;56.52;94600.28;5133579;27;20034;-69
2023/08/27 02:46:38;;;;;;;5.40;4.65;;;;;;;20.80;56.31;94615.50;5132539;27;20035;-68
2023/08/27 02:49:03;;;;;;;6.55;4.70;;;;;;;20.75;56.52;94604.72;5133363;27;20031;-69
2023/08/27 02:51:29;;;;;;;5.97;4.57;;;;;;;20.72;56.56;94595.34;5116070;27;20035;-69
2023/08/27 02:53:55;;;;;;;6.63;5.00;;;;;;;20.81;56.07;94593.41;5133312;27;20469;-69
2023/08/27 02:56:21;;;;;;;7.45;5.18;;;;;;;20.69;56.72;94590.47;5133244;27;20102;-69
2023/08/27 02:58:49;;;;;;;5.97;4.40;;;;;;;20.75;56.74;94615.25;5116068;27;20106;-69
2023/08/27 03:01:21;;;;;;;5.30;4.63;;;;;;;20.59;57.15;94610.28;5134356;27;20023;-69
2023/08/27 03:03:47;;;;;;;6.55;5.07;;;;;;;20.42;57.61;94607.94;5116403;27;20413;-68
2023/08/27 03:06:12;;;;;;;8.02;5.22;;;;;;;20.44;58.09;94608.56;5132995;27;20404;-69
2023/08/27 03:08:38;;;;;;;11.65;5.97;;;;;;;20.45;58.33;94610.19;5115705;27;20031;-69
2023/08/27 03:11:03;;;;;;;6.93;5.55;;;;;;;20.47;58.41;94608.16;5134252;27;20019;-69
2023/08/27 03:13:29;;;;;;;6.60;5.15;;;;;;;20.46;57.75;94605.72;5134546;27;20031;-70
2023/08/27 03:15:54;;;;;;;6.13;5.30;;;;;;;20.51;57.89;94601.50;5134343;27;20447;-69
2023/08/27 03:18:20;;;;;;;7.13;5.43;;;;;;;20.42;58.27;94607.94;5115832;27;20102;-69
2023/08/27 03:20:45;;;;;;;6.30;4.80;;;;;;;20.44;57.91;94613.00;5132861;27;20080;-69
2023/08/27 03:23:11;;;;;;;6.20;5.00;;;;;;;20.39;58.29;94616.22;5132882;27;20064;-69
2023/08/27 03:25:36;;;;;;;5.72;5.03;;;;;;;20.37;58.45;94612.97;5133938;27;20394;-70
2023/08/27 03:28:02;;;;;;;7.90;5.20;;;;;;;20.31;58.24;94601.38;5115203;27;20058;-70
2023/08/27 03:30:28;;;;;;;6.65;4.80;;;;;;;20.28;58.03;94614.09;5133773;27;20038;-71
2023/08/27 03:32:53;;;;;;;7.68;4.95;;;;;;;20.15;58.42;94611.41;5134104;27;20035;-70
2023/08/27 03:35:19;;;;;;;6.10;5.05;;;;;;;20.18;58.59;94606.53;5134016;27;20042;-70
2023/08/27 03:37:44;;;;;;;5.45;4.63;;;;;;;20.15;58.76;94619.31;5115517;27;20028;-69
2023/08/27 03:40:10;;;;;;;6.80;4.80;;;;;;;20.19;58.38;94624.00;5132479;27;20030;-69
2023/08/27 03:42:35;;;;;;;6.05;4.93;;;;;;;20.22;58.35;94620.16;5133865;27;20159;-70
2023/08/27 03:45:00;;;;;;;6.80;5.20;;;;;;;20.27;57.93;94625.69;5132332;27;20484;-70
2023/08/27 03:47:26;;;;;;;6.75;4.85;;;;;;;20.11;58.28;94624.13;5132285;27;20150;-70
2023/08/27 03:49:52;;;;;;;7.18;5.10;;;;;;;20.27;58.20;94628.31;5115147;27;20027;-70
2023/08/27 03:52:17;;;;;;;7.30;4.65;;;;;;;19.97;59.15;94628.47;5115111;27;20030;-70
2023/08/27 03:54:43;;;;;;;6.43;5.00;;;;;;;19.92;58.87;94622.13;5132089;27;20412;-70
2023/08/27 03:57:08;;;;;;;6.90;5.60;;;;;;;19.83;59.80;94631.97;5128939;27;20023;-70
2023/08/27 03:59:34;;;;;;;5.93;5.32;;;;;;;19.81;59.82;94636.66;5121387;27;20545;-70
2023/08/27 04:01:59;;;;;;;9.63;5.13;;;;;;;19.78;60.09;94643.09;5105304;27;20538;-70
2023/08/27 04:04:24;;;;;;;5.32;4.82;;;;;;;19.76;60.22;94644.28;5126717;27;20031;-70
2023/08/27 04:06:50;;;;;;;5.50;5.00;;;;;;;19.79;60.17;94646.56;5124037;27;20537;-70
2023/08/27 04:09:15;;;;;;;7.35;4.72;;;;;;;19.80;60.17;94650.81;5123020;27;20085;-69
2023/08/27 04:11:41;;;;;;;7.70;5.53;;;;;;;19.77;60.31;94652.00;5109745;28;20038;-70
2023/08/27 04:14:06;;;;;;;7.20;4.90;;;;;;;19.68;60.28;94633.88;5114422;27;20488;-70
2023/08/27 04:16:32;;;;;;;5.22;4.72;;;;;;;19.67;60.69;94648.03;5118728;27;20039;-70
2023/08/27 04:18:57;;;;;;;5.90;4.80;;;;;;;19.61;61.01;94637.22;5115984;27;20080;-69
2023/08/27 04:21:23;;;;;;;6.45;5.30;;;;;;;19.72;60.75;94657.00;5106648;28;20024;-69
2023/08/27 04:23:48;;;;;;;6.22;5.28;;;;;;;19.89;59.82;94641.75;5128023;27;20480;-70
2023/08/27 04:26:14;;;;;;;5.85;4.80;;;;;;;19.91;59.94;94644.22;5129917;27;20031;-69
2023/08/27 04:28:39;;;;;;;5.35;4.80;;;;;;;19.78;59.72;94627.28;5112647;27;20075;-70
2023/08/27 04:31:05;;;;;;;6.72;5.35;;;;;;;20.12;59.56;94653.97;5132080;27;20415;-70
2023/08/27 04:33:30;;;;;;;6.30;5.13;;;;;;;20.13;59.28;94653.75;5129598;27;20084;-70
2023/08/27 04:35:56;;;;;;;6.00;5.07;;;;;;;20.16;59.26;94653.38;5131193;27;20072;-69
2023/08/27 04:38:21;;;;;;;6.70;5.35;;;;;;;20.15;59.29;94635.13;5109786;27;20046;-70
2023/08/27 04:40:52;;;;;;;6.60;5.30;;;;;;;20.27;59.40;94644.13;5130187;27;20547;-70
2023/08/27 04:43:18;;;;;;;5.82;4.90;;;;;;;20.43;59.04;94651.78;5129678;27;20031;-70
2023/08/27 04:45:43;;;;;;;6.50;5.32;;;;;;;20.44;58.63;94644.66;5130386;27;20032;-71
2023/08/27 04:48:09;;;;;;;8.05;5.30;;;;;;;20.60;58.28;94641.78;5129596;27;20053;-70
2023/08/27 04:50:35;;;;;;;5.95;5.22;;;;;;;20.96;57.53;94644.22;5129153;27;20019;-69
2023/08/27 04:53:00;;;;;;;8.52;5.65;;;;;;;21.75;55.19;94635.00;5120518;27;20035;-72
2023/08/27 04:55:26;;;;;;;6.53;5.22;;;;;;;22.64;53.17;94638.31;5126009;27;20041;-71
2023/08/27 04:57:54;;;;;;;8.32;5.18;;;;;;;23.30;51.15;94642.69;5096509;27;20485;-69
2023/08/27 05:00:20;;;;;;;6.40;5.25;;;;;;;24.00;49.29;94646.22;5104652;27;20030;-69
2023/08/27 05:02:49;;;;;;;6.95;4.80;;;;;;;24.47;48.08;94640.59;5136999;27;20527;-69
2023/08/27 05:05:14;;;;;;;6.15;4.75;;;;;;;25.04;46.39;94649.25;5145581;27;20027;-69
2023/08/27 05:07:40;;;;;;;7.22;5.50;;;;;;;25.44;45.38;94648.03;5129709;27;20412;-70
2023/08/27 05:10:06;;;;;;;5.85;5.10;;;;;;;25.60;45.00;94626.13;5128502;27;20027;-70
2023/08/27 05:12:31;;;;;;;7.35;5.15;;;;;;;26.03;43.87;94630.50;5133892;27;20116;-70
2023/08/27 05:14:57;;;;;;;7.15;5.05;;;;;;;25.93;44.19;94648.84;5150940;27;20476;-70
2023/08/27 05:17:23;;;;;;;6.53;5.65;;;;;;;25.74;44.85;94642.72;5119518;27;20031;-70
2023/08/27 05:19:48;;;;;;;5.75;4.97;;;;;;;25.66;45.08;94654.50;5112815;28;20027;-70
2023/08/27 05:22:14;;;;;;;7.57;5.22;;;;;;;25.21;46.02;94643.38;5134184;27;20087;-69
2023/08/27 05:24:39;;;;;;;6.57;5.00;;;;;;;25.04;46.63;94648.44;5112521;28;20057;-70
2023/08/27 05:27:05;;;;;;;6.65;5.10;;;;;;;24.96;46.99;94650.38;5131283;27;20051;-70
2023/08/27 05:29:31;;;;;;;6.82;5.40;;;;;;;24.92;47.21;94659.78;5127892;28;20115;-69
2023/08/27 05:31:57;;;;;;;6.10;5.40;;;;;;;25.03;47.25;94647.63;5130624;27;20480;-69
2023/08/27 05:34:23;;;;;;;7.65;5.40;;;;;;;24.89;47.02;94625.69;5138372;27;20095;-69
2023/08/27 05:36:48;;;;;;;6.15;5.03;;;;;;;25.05;46.56;94650.06;5130280;28;20031;-69
2023/08/27 05:39:14;;;;;;;6.93;5.43;;;;;;;24.63;47.43;94657.84;5128462;27;20122;-71
2023/08/27 05:41:40;;;;;;;10.70;5.80;;;;;;;24.62;47.83;94662.31;5112383;28;20084;-70
2023/08/27 05:44:05;;;;;;;6.53;5.25;;;;;;;24.64;47.41;94649.63;5148691;27;20049;-70
2023/08/27 05:46:31;;;;;;;7.88;5.55;;;;;;;24.87;47.27;94656.97;5109394;28;20035;-70
2023/08/27 05:48:56;;;;;;;7.43;5.10;;;;;;;24.78;47.39;94658.28;5109044;28;20176;-68
2023/08/27 05:51:21;;;;;;;12.75;5.03;;;;;;;25.02;46.72;94663.78;5123560;28;20023;-70
2023/08/27 05:53:47;;;;;;;9.93;5.40;;;;;;;25.18;46.92;94663.22;5114575;28;20500;-71
2023/08/27 05:56:13;;;;;;;7.50;5.30;;;;;;;24.88;47.22;94660.47;5121737;28;20027;-71
2023/08/27 05:58:38;;;;;;;8.18;5.47;;;;;;;24.86;47.18;94657.22;5109217;28;20188;-71
2023/08/27 06:01:04;;;;;;;9.07;5.80;;;;;;;24.70;47.42;94650.59;5092327;28;20059;-70
2023/08/27 06:03:30;;;;;;;7.93;5.25;;;;;;;24.73;47.72;94652.81;5090329;28;20020;-71
2023/08/27 06:05:55;;;;;;;6.30;5.30;;;;;;;25.12;46.35;94637.50;5109235;28;20516;-70
2023/08/27 06:08:20;;;;;;;6.10;5.18;;;;;;;25.24;46.53;94646.41;5119578;27;20468;-71
2023/08/27 06:10:46;;;;;;;8.00;5.22;;;;;;;24.91;47.22;94642.25;5112826;28;20031;-71
2023/08/27 06:13:11;;;;;;;6.97;5.57;;;;;;;24.82;47.57;94629.44;5135552;27;20026;-73
2023/08/27 06:15:39;;;;;;;6.90;5.32;;;;;;;25.24;46.38;94648.25;5111942;28;20031;-70
2023/08/27 06:18:05;;;;;;;7.50;5.28;;;;;;;25.42;46.40;94648.25;5112722;28;20019;-70
2023/08/27 06:20:31;;;;;;;7.75;5.65;;;;;;;25.58;46.20;94649.50;5108012;28;20032;-72
2023/08/27 06:22:57;;;;;;;6.25;4.97;;;;;;;25.63;46.48;94650.44;5121875;27;20051;-70
2023/08/27 06:25:23;;;;;;;10.48;5.78;;;;;;;25.66;45.64;94635.06;5129743;27;20027;-71
2023/08/27 06:27:49;;;;;;;6.47;5.15;;;;;;;25.69;45.38;94643.41;5098173;27;20511;-70
2023/08/27 06:30:14;;;;;;;7.15;5.05;;;;;;;25.78;45.51;94641.25;5115101;27;20043;-70
2023/08/27 06:32:40;;;;;;;7.03;5.05;;;;;;;25.81;45.43;94641.59;5134261;27;20025;-70
2023/08/27 06:35:05;;;;;;;7.63;5.03;;;;;;;25.48;45.75;94627.94;5133229;27;20031;-71
2023/08/27 06:37:31;;;;;;;7.65;5.30;;;;;;;25.64;45.53;94629.97;5130085;27;20473;-71
2023/08/27 06:39:57;;;;;;;6.32;5.28;;;;;;;25.73;45.00;94623.28;5133024;27;20042;-71
2023/08/27 06:42:22;;;;;;;8.40;5.47;;;;;;;25.45;44.39;94557.41;5091448;28;20035;-71
2023/08/27 06:44:48;;;;;;;7.78;4.88;;;;;;;26.38;43.51;94611.91;5113803;28;20019;-73
2023/08/27 06:47:13;;;;;;;6.75;5.20;;;;;;;26.53;43.67;94616.84;5121221;27;20523;-72
2023/08/27 06:49:38;;;;;;;7.28;5.07;;;;;;;26.72;43.95;94625.53;5128669;27;20040;-70
2023/08/27 06:52:04;;;;;;;7.60;4.75;;;;;;;27.08;42.90;94621.78;5125922;27;20027;-71
2023/08/27 06:54:30;;;;;;;8.65;5.45;;;;;;;27.08;42.90;94607.63;5134342;27;20046;-72
2023/08/27 06:56:55;;;;;;;8.25;5.20;;;;;;;27.04;42.21;94628.63;5131713;27;20477;-71
2023/08/27 06:59:20;;;;;;;9.05;5.35;;;;;;;27.06;42.82;94621.22;5115854;27;20031;-72
2023/08/27 07:01:46;;;;;;;9.93;5.60;;;;;;;26.97;42.72;94619.94;5132231;27;20034;-71
2023/08/27 07:04:13;;;;;;;7.55;5.32;;;;;;;27.04;42.34;94619.81;5127500;27;20035;-71
2023/08/27 07:06:38;;;;;;;7.90;5.53;;;;;;;27.10;42.34;94621.53;5122926;27;20031;-72
2023/08/27 07:09:07;;;;;;;9.85;5.00;;;;;;;27.35;41.18;94623.94;5130467;27;20072;-71
2023/08/27 07:11:35;;;;;;;5.93;5.00;;;;;;;27.50;40.47;94624.28;5132326;27;20481;-71
2023/08/27 07:14:00;;;;;;;7.20;5.47;;;;;;;27.40;41.05;94618.72;5132003;27;20027;-71
2023/08/27 07:16:28;;;;;;;5.95;4.85;;;;;;;27.15;41.59;94622.47;5115112;27;20034;-71
2023/08/27 07:18:54;;;;;;;7.05;5.50;;;;;;;27.37;41.46;94622.69;5132492;27;20038;-71
2023/08/27 07:21:19;;;;;;;7.38;4.80;;;;;;;27.66;40.80;94628.03;5132331;27;20050;-72
2023/08/27 07:23:45;;;;;;;7.18;5.43;;;;;;;28.03;40.32;94622.34;5130950;27;20062;-72
2023/08/27 07:26:11;;;;;;;7.63;5.22;;;;;;;28.28;39.10;94630.78;5131846;27;20031;-71
2023/08/27 07:28:36;;;;;;;6.65;5.20;;;;;;;27.98;40.62;94639.06;5132782;27;20128;-71
2023/08/27 07:31:02;;;;;;;6.85;5.18;;;;;;;27.79;40.10;94632.28;5131723;27;20023;-71
2023/08/27 07:33:27;;;;;;;7.10;5.13;;;;;;;28.10;39.39;94635.53;5133257;27;20027;-71
2023/08/27 07:35:52;;;;;;;6.03;5.10;;;;;;;27.88;40.15;94638.06;5114510;27;20424;-71
2023/08/27 07:38:18;;;;;;;5.70;4.90;;;;;;;27.79;40.03;94627.78;5133678;27;20031;-72
2023/08/27 07:40:43;;;;;;;7.60;4.95;;;;;;;28.05;39.65;94607.72;5132507;27;20389;-72
2023/08/27 07:43:09;;;;;;;7.72;5.28;;;;;;;27.82;39.82;94613.16;5115381;27;20104;-72
2023/08/27 07:45:34;;;;;;;6.22;5.35;;;;;;;28.34;38.53;94621.00;5132247;27;20470;-71
2023/08/27 07:48:00;;;;;;;6.65;4.88;;;;;;;28.23;39.24;94613.88;5132107;27;20039;-71
2023/08/27 07:50:26;;;;;;;6.93;5.00;;;;;;;28.49;38.43;94623.13;5132267;27;20035;-71
2023/08/27 07:52:51;;;;;;;5.63;4.78;;;;;;;28.65;38.88;94621.50;5115190;27;20537;-72
2023/08/27 07:55:17;;;;;;;10.95;5.45;;;;;;;28.57;38.12;94619.25;5133415;27;20030;-73
2023/08/27 07:57:43;;;;;;;6.85;5.28;;;;;;;28.40;38.98;94620.03;5115021;27;20472;-72
2023/08/27 08:00:09;;;;;;;6.43;5.40;;;;;;;28.17;38.58;94615.66;5132073;27;20038;-71
2023/08/27 08:02:34;;;;;;;7.57;5.10;;;;;;;28.48;38.55;94605.50;5131958;27;20035;-71
2023/08/27 08:05:01;;;;;;;6.10;5.05;;;;;;;28.49;38.75;94599.09;5119777;27;20104;-72
2023/08/27 08:07:26;;;;;;;6.10;5.22;;;;;;;28.52;38.55;94599.41;5115250;27;20073;-72
2023/08/27 08:09:52;;;;;;;7.95;5.32;;;;;;;28.67;38.64;94598.03;5077283;28;20032;-72
2023/08/27 08:12:17;;;;;;;8.63;5.15;;;;;;;28.76;37.76;94601.91;5109779;28;20065;-72
2023/08/27 08:14:43;;;;;;;5.97;4.80;;;;;;;29.18;36.87;94599.56;5092825;28;20092;-72
2023/08/27 08:17:09;;;;;;;9.68;5.50;;;;;;;29.53;36.84;94597.56;5088992;28;20028;-72
2023/08/27 08:19:34;;;;;;;6.25;5.38;;;;;;;29.43;36.18;94592.09;5110303;28;20032;-72
2023/08/27 08:22:00;;;;;;;6.15;5.40;;;;;;;29.40;37.29;94588.88;5110969;28;20035;-71
2023/08/27 08:24:25;;;;;;;6.38;5.07;;;;;;;29.51;37.01;94580.97;5093410;28;20528;-72
2023/08/27 08:26:52;;;;;;;7.65;5.20;;;;;;;29.23;37.45;94588.13;5097487;28;20036;-71
2023/08/27 08:29:21;;;;;;;8.65;5.25;;;;;;;29.56;35.80;94576.47;5114646;27;20036;-71
2023/08/27 08:31:47;;;;;;;9.35;5.55;;;;;;;29.74;36.13;94575.34;5096849;27;20034;-71
2023/08/27 08:34:13;;;;;;;6.82;6.07;;;;;;;29.50;36.62;94574.78;5104644;27;20032;-72
2023/08/27 08:36:38;;;;;;;6.70;5.60;;;;;;;29.89;35.22;94576.53;5127660;27;20038;-69
2023/08/27 08:39:04;;;;;;;8.40;5.40;;;;;;;29.88;35.88;94574.94;5113812;27;20046;-71
2023/08/27 08:41:30;;;;;;;6.90;5.55;;;;;;;29.62;35.66;94566.63;5120459;27;20026;-70
2023/08/27 08:44:02;;;;;;;8.20;6.00;;;;;;;29.62;35.76;94561.28;5133388;27;20408;-72
2023/08/27 08:46:28;;;;;;;8.77;5.97;;;;;;;29.70;35.62;94568.06;5117335;27;20011;-70
2023/08/27 08:48:54;;;;;;;8.05;5.95;;;;;;;30.21;35.03;94555.16;5117443;27;20041;-72
2023/08/27 08:51:24;;;;;;;7.95;5.97;;;;;;;30.11;34.76;94542.47;5133948;27;20400;-70
2023/08/27 08:53:50;;;;;;;8.18;5.90;;;;;;;30.40;34.87;94561.75;5134526;27;20504;-72
2023/08/27 08:56:29;;;;;;;5.95;5.18;;;;;;;30.46;34.55;94558.03;5151378;27;20107;-69
2023/08/27 08:58:58;;;;;;;5.65;4.95;;;;;;;30.87;31.89;94554.81;5118239;27;20085;-70
2023/08/27 09:01:26;;;;;;;8.95;4.88;;;;;;;30.37;33.11;94507.88;5151249;27;20011;-70
2023/08/27 09:03:52;;;;;;;6.95;5.35;;;;;;;30.67;33.38;94523.34;5116901;27;20030;-70
2023/08/27 09:06:21;;;;;;;6.55;5.78;;;;;;;30.58;33.46;94536.41;5133865;27;20072;-69
2023/08/27 09:08:47;;;;;;;8.63;5.97;;;;;;;30.95;32.71;94535.56;5134033;27;20030;-70
2023/08/27 09:11:12;;;;;;;6.63;5.18;;;;;;;31.01;34.00;94529.19;5152574;27;20071;-70
2023/08/27 09:13:38;;;;;;;6.45;5.05;;;;;;;31.32;32.76;94526.63;5116819;27;20030;-71
2023/08/27 09:16:05;;;;;;;8.80;5.25;;;;;;;31.27;33.12;94532.75;5133647;27;20051;-71
2023/08/27 09:18:30;;;;;;;9.50;5.40;;;;;;;31.08;33.12;94528.94;5151026;27;20051;-71
2023/08/27 09:20:56;;;;;;;6.55;5.50;;;;;;;31.07;32.88;94524.66;5152225;27;20411;-71
2023/08/27 09:23:22;;;;;;;6.30;5.55;;;;;;;31.35;32.54;94524.22;5134087;27;20107;-73
2023/08/27 09:25:47;;;;;;;8.30;4.63;;;;;;;31.65;31.85;94527.25;5151835;27;20027;-73
2023/08/27 09:28:14;;;;;;;5.95;4.88;;;;;;;31.40;31.16;94528.81;5151974;27;20050;-71
2023/08/27 09:30:39;;;;;;;8.18;5.03;;;;;;;31.48;30.94;94528.31;5134058;27;20071;-71
2023/08/27 09:33:05;;;;;;;7.13;4.80;;;;;;;31.15;31.78;94524.94;5151082;27;20030;-72
2023/08/27 09:35:38;;;;;;;7.25;4.63;;;;;;;30.82;31.69;94531.50;5116609;28;20035;-73
2023/08/27 09:38:03;;;;;;;9.93;5.28;;;;;;;30.92;31.96;94503.91;5110168;28;20032;-72
2023/08/27 09:40:28;;;;;;;8.40;4.78;;;;;;;31.16;31.82;94502.41;5109864;28;20503;-72
2023/08/27 09:43:08;;;;;;;7.30;4.80;;;;;;;31.41;30.44;94525.06;5126224;28;20031;-73
2023/08/27 09:45:34;;;;;;;5.07;4.53;;;;;;;31.37;31.14;94510.53;5129314;28;20420;-72
2023/08/27 09:48:00;;;;;;;7.78;4.50;;;;;;;31.36;31.43;94511.63;5118970;27;20032;-72
2023/08/27 09:50:27;;;;;;;6.03;4.43;;;;;;;31.29;31.37;94513.72;5111903;28;20031;-72
2023/08/27 09:52:52;;;;;;;8.15;4.78;;;;;;;31.46;31.62;94505.50;5097760;28;20123;-72
2023/08/27 09:55:17;;;;;;;5.72;4.60;;;;;;;31.45;31.36;94493.94;5101313;28;20043;-68
2023/08/27 09:57:55;;;;;;;9.15;4.55;;;;;;;31.33;31.44;94494.13;5133868;27;20026;-74
2023/08/27 10:00:22;;;;;;;6.78;4.80;;;;;;;31.15;30.48;94502.69;5132395;27;20057;-70
2023/08/27 10:02:51;;;;;;;7.35;4.57;;;;;;;31.34;30.62;94494.94;5135023;27;20023;-70
2023/08/27 10:05:16;;;;;;;6.68;4.90;;;;;;;31.22;31.26;94491.69;5131324;27;20035;-70
2023/08/27 10:07:42;;;;;;;9.52;5.53;;;;;;;31.32;31.94;94492.53;5134016;27;20059;-70
2023/08/27 10:10:08;;;;;;;6.43;4.65;;;;;;;31.35;30.83;94496.56;5138076;27;20120;-70
2023/08/27 10:12:33;;;;;;;8.88;4.97;;;;;;;31.10;31.98;94476.66;5128953;27;20536;-70
2023/08/27 10:14:59;;;;;;;6.13;4.60;;;;;;;31.22;31.27;94497.06;5110006;27;20488;-70
2023/08/27 10:17:25;;;;;;;5.93;4.72;;;;;;;31.13;31.51;94484.16;5132174;27;20073;-71
2023/08/27 10:19:50;;;;;;;11.02;5.00;;;;;;;31.21;31.45;94485.53;5107196;27;20023;-70
2023/08/27 10:22:15;;;;;;;7.32;4.70;;;;;;;31.34;31.51;94489.56;5111357;27;20065;-70
2023/08/27 10:24:41;;;;;;;6.22;4.55;;;;;;;31.50;31.23;94480.53;5089575;27;20576;-71
2023/08/27 10:27:06;;;;;;;5.07;4.50;;;;;;;31.31;30.77;94479.38;5114764;27;20055;-70
2023/08/27 10:29:32;;;;;;;7.38;4.32;;;;;;;31.19;30.42;94476.13;5141520;27;20083;-70
2023/08/27 10:31:57;;;;;;;7.28;4.13;;;;;;;31.08;30.90;94469.94;5100443;27;20031;-70
2023/08/27 10:34:23;;;;;;;8.77;4.53;;;;;;;31.05;31.54;94463.22;5119260;27;20404;-70
2023/08/27 10:36:50;;;;;;;11.63;4.63;;;;;;;31.18;30.69;94464.59;5115376;27;20586;-70
2023/08/27 10:39:15;;;;;;;6.97;4.50;;;;;;;31.10;30.77;94463.25;5118942;27;20031;-71
2023/08/27 10:41:41;;;;;;;6.53;4.55;;;;;;;30.98;31.35;94470.72;5120162;27;20034;-70
2023/08/27 10:44:09;;;;;;;6.72;4.35;;;;;;;31.10;30.47;94468.59;5132355;27;20591;-71
2023/08/27 10:46:34;;;;;;;8.25;4.38;;;;;;;31.14;30.34;94468.88;5131432;27;20416;-71
2023/08/27 10:49:00;;;;;;;7.72;4.72;;;;;;;31.09;30.49;94445.53;5099891;27;20046;-71
2023/08/27 10:51:32;;;;;;;6.20;4.50;;;;;;;31.26;29.98;94455.22;5131711;27;20030;-71
2023/08/27 10:53:58;;;;;;;7.70;4.60;;;;;;;31.59;29.28;94448.59;5115721;27;20039;-71
2023/08/27 10:56:38;;;;;;;5.95;4.10;;;;;;;31.39;29.70;94441.31;5129953;27;20522;-71
2023/08/27 10:59:11;;;;;;;5.13;4.00;;;;;;;31.58;30.17;94436.25;5132645;27;20114;-71
2023/08/27 11:01:57;;;;;;;5.63;4.30;;;;;;;31.48;29.78;94434.38;5110655;28;20063;-72
2023/08/27 11:04:42;;;;;;;6.22;4.43;;;;;;;31.78;29.23;94438.13;5117871;27;20043;-71
2023/08/27 11:07:22;;;;;;;5.10;4.40;;;;;;;31.71;29.33;94443.78;5115165;27;20027;-71
2023/08/27 11:09:49;;;;;;;6.00;3.90;;;;;;;31.79;29.35;94437.09;5143170;27;20054;-72
2023/08/27 11:12:20;;;;;;;11.82;4.75;;;;;;;31.60;30.36;94440.28;5132192;27;20030;-72
2023/08/27 11:14:46;;;;;;;10.32;4.50;;;;;;;31.76;29.08;94425.00;5135398;27;20658;-72
2023/08/27 11:17:11;;;;;;;8.52;4.80;;;;;;;31.90;29.12;94437.88;5098343;27;20034;-72
2023/08/27 11:19:37;;;;;;;5.78;4.25;;;;;;;31.83;29.88;94419.34;5120944;27;20031;-72
2023/08/27 11:22:09;;;;;;;9.93;4.90;;;;;;;31.75;29.94;94417.19;5134692;27;20028;-72
2023/08/27 11:24:38;;;;;;;5.85;4.78;;;;;;;31.66;30.00;94414.25;5135517;27;20369;-72
2023/08/27 11:27:04;;;;;;;8.43;4.50;;;;;;;31.80;30.08;94420.69;5098419;27;20055;-72
2023/08/27 11:29:30;;;;;;;6.40;4.30;;;;;;;31.96;29.28;94418.84;5116808;27;20031;-72